sensor_id;sensor_type;location;lat;lon;timestamp;P1;durP1;ratioP1;P2;durP2;ratioP2
28587;SDS011;15787;49.662;10.162;2023-03-20T00:01:12;5.63;;;4.07;;
28587;SDS011;15787;49.662;10.162;2023-03-20T00:03:47;8.75;;;4.50;;
28587;SDS011;15787;49.662;10.162;2023-03-20T00:06:20;5.35;;;3.72;;
28587;SDS011;15787;49.662;10.162;2023-03-20T00:08:55;5.60;;;4.07;;
28587;SDS011;15787;49.662;10.162;2023-03-20T00:11:29;6.28;;;4.03;;
28587;SDS011;15787;49.662;10.162;2023-03-20T00:14:04;9.07;;;3.80;;
28587;SDS011;15787;49.662;10.162;2023-03-20T00:16:42;8.10;;;3.75;;
28587;SDS011;15787;49.662;10.162;2023-03-20T00:19:17;6.72;;;3.60;;
28587;SDS011;15787;49.662;10.162;2023-03-20T00:21:51;5.25;;;3.30;;
28587;SDS011;15787;49.662;10.162;2023-03-20T00:24:25;7.22;;;3.80;;
28587;SDS011;15787;49.662;10.162;2023-03-20T00:26:58;6.70;;;3.88;;
28587;SDS011;15787;49.662;10.162;2023-03-20T00:29:33;5.47;;;3.90;;
28587;SDS011;15787;49.662;10.162;2023-03-20T00:32:08;4.82;;;3.60;;
28587;SDS011;15787;49.662;10.162;2023-03-20T00:34:44;7.40;;;3.90;;
28587;SDS011;15787;49.662;10.162;2023-03-20T00:37:17;6.22;;;3.78;;
28587;SDS011;15787;49.662;10.162;2023-03-20T00:39:50;6.32;;;3.78;;
28587;SDS011;15787;49.662;10.162;2023-03-20T00:42:22;6.60;;;4.00;;
28587;SDS011;15787;49.662;10.162;2023-03-20T00:44:56;5.55;;;4.18;;
28587;SDS011;15787;49.662;10.162;2023-03-20T00:47:31;7.40;;;4.53;;
28587;SDS011;15787;49.662;10.162;2023-03-20T00:50:13;9.15;;;4.70;;
28587;SDS011;15787;49.662;10.162;2023-03-20T00:52:48;6.15;;;4.57;;
28587;SDS011;15787;49.662;10.162;2023-03-20T00:55:22;7.55;;;4.72;;
28587;SDS011;15787;49.662;10.162;2023-03-20T00:57:57;5.82;;;4.45;;
28587;SDS011;15787;49.662;10.162;2023-03-20T01:00:35;8.18;;;4.68;;
28587;SDS011;15787;49.662;10.162;2023-03-20T01:03:14;7.25;;;4.30;;
28587;SDS011;15787;49.662;10.162;2023-03-20T01:05:51;5.95;;;4.18;;
28587;SDS011;15787;49.662;10.162;2023-03-20T01:08:25;6.38;;;4.10;;
28587;SDS011;15787;49.662;10.162;2023-03-20T01:10:58;8.18;;;4.70;;
28587;SDS011;15787;49.662;10.162;2023-03-20T01:13:31;7.65;;;4.72;;
28587;SDS011;15787;49.662;10.162;2023-03-20T01:16:04;6.07;;;4.30;;
28587;SDS011;15787;49.662;10.162;2023-03-20T01:18:39;6.28;;;4.45;;
28587;SDS011;15787;49.662;10.162;2023-03-20T01:21:12;7.40;;;4.80;;
28587;SDS011;15787;49.662;10.162;2023-03-20T01:23:45;7.70;;;4.90;;
28587;SDS011;15787;49.662;10.162;2023-03-20T01:26:23;8.75;;;4.60;;
28587;SDS011;15787;49.662;10.162;2023-03-20T01:29:02;9.98;;;5.57;;
28587;SDS011;15787;49.662;10.162;2023-03-20T01:31:37;8.45;;;5.45;;
28587;SDS011;15787;49.662;10.162;2023-03-20T01:34:11;11.32;;;5.85;;
28587;SDS011;15787;49.662;10.162;2023-03-20T01:36:47;12.43;;;6.07;;
28587;SDS011;15787;49.662;10.162;2023-03-20T01:39:22;7.88;;;5.57;;
28587;SDS011;15787;49.662;10.162;2023-03-20T01:42:04;9.55;;;5.43;;
28587;SDS011;15787;49.662;10.162;2023-03-20T01:44:38;7.90;;;5.50;;
28587;SDS011;15787;49.662;10.162;2023-03-20T01:47:14;11.63;;;6.00;;
28587;SDS011;15787;49.662;10.162;2023-03-20T01:53:07;8.52;;;5.22;;
28587;SDS011;15787;49.662;10.162;2023-03-20T01:55:49;9.15;;;5.95;;
28587;SDS011;15787;49.662;10.162;2023-03-20T01:58:29;8.73;;;5.53;;
28587;SDS011;15787;49.662;10.162;2023-03-20T02:01:07;13.05;;;5.68;;
28587;SDS011;15787;49.662;10.162;2023-03-20T02:03:47;12.48;;;6.18;;
28587;SDS011;15787;49.662;10.162;2023-03-20T02:06:26;9.20;;;5.55;;
28587;SDS011;15787;49.662;10.162;2023-03-20T02:09:19;8.30;;;5.65;;
28587;SDS011;15787;49.662;10.162;2023-03-20T02:11:52;9.48;;;5.60;;
28587;SDS011;15787;49.662;10.162;2023-03-20T02:14:27;9.45;;;6.43;;
28587;SDS011;15787;49.662;10.162;2023-03-20T02:17:15;7.32;;;5.25;;
28587;SDS011;15787;49.662;10.162;2023-03-20T02:19:57;8.95;;;6.53;;
28587;SDS011;15787;49.662;10.162;2023-03-20T02:22:56;8.95;;;6.95;;
28587;SDS011;15787;49.662;10.162;2023-03-20T02:26:09;11.85;;;6.72;;
28587;SDS011;15787;49.662;10.162;2023-03-20T02:29:12;10.07;;;6.38;;
28587;SDS011;15787;49.662;10.162;2023-03-20T02:38:36;12.13;;;7.65;;
28587;SDS011;15787;49.662;10.162;2023-03-20T02:41:25;13.13;;;8.32;;
28587;SDS011;15787;49.662;10.162;2023-03-20T02:44:03;12.95;;;8.15;;
28587;SDS011;15787;49.662;10.162;2023-03-20T02:46:42;13.00;;;8.00;;
28587;SDS011;15787;49.662;10.162;2023-03-20T02:49:38;13.27;;;8.52;;
28587;SDS011;15787;49.662;10.162;2023-03-20T02:52:24;11.65;;;7.75;;
28587;SDS011;15787;49.662;10.162;2023-03-20T02:55:09;13.88;;;8.68;;
28587;SDS011;15787;49.662;10.162;2023-03-20T02:57:50;13.10;;;8.07;;
28587;SDS011;15787;49.662;10.162;2023-03-20T03:00:31;12.38;;;8.45;;
28587;SDS011;15787;49.662;10.162;2023-03-20T03:03:10;14.15;;;8.40;;
28587;SDS011;15787;49.662;10.162;2023-03-20T03:05:50;13.70;;;8.98;;
28587;SDS011;15787;49.662;10.162;2023-03-20T03:08:28;15.45;;;10.27;;
28587;SDS011;15787;49.662;10.162;2023-03-20T03:11:07;13.00;;;8.60;;
28587;SDS011;15787;49.662;10.162;2023-03-20T03:13:41;16.40;;;9.65;;
28587;SDS011;15787;49.662;10.162;2023-03-20T03:16:20;12.35;;;8.93;;
28587;SDS011;15787;49.662;10.162;2023-03-20T03:18:58;14.48;;;9.85;;
28587;SDS011;15787;49.662;10.162;2023-03-20T03:21:38;16.92;;;10.43;;
28587;SDS011;15787;49.662;10.162;2023-03-20T03:24:22;16.40;;;10.40;;
28587;SDS011;15787;49.662;10.162;2023-03-20T03:27:16;16.73;;;10.83;;
28587;SDS011;15787;49.662;10.162;2023-03-20T03:29:53;18.52;;;12.13;;
28587;SDS011;15787;49.662;10.162;2023-03-20T03:32:30;17.27;;;10.88;;
28587;SDS011;15787;49.662;10.162;2023-03-20T03:35:06;17.30;;;11.98;;
28587;SDS011;15787;49.662;10.162;2023-03-20T03:37:48;20.25;;;12.52;;
28587;SDS011;15787;49.662;10.162;2023-03-20T03:40:28;17.85;;;10.05;;
28587;SDS011;15787;49.662;10.162;2023-03-20T03:43:11;16.98;;;11.23;;
28587;SDS011;15787;49.662;10.162;2023-03-20T03:45:51;16.23;;;10.90;;
28587;SDS011;15787;49.662;10.162;2023-03-20T03:48:29;17.17;;;10.98;;
28587;SDS011;15787;49.662;10.162;2023-03-20T03:51:06;16.30;;;10.57;;
28587;SDS011;15787;49.662;10.162;2023-03-20T03:53:57;17.98;;;11.68;;
28587;SDS011;15787;49.662;10.162;2023-03-20T03:56:33;15.88;;;10.88;;
28587;SDS011;15787;49.662;10.162;2023-03-20T03:59:12;16.80;;;11.10;;
28587;SDS011;15787;49.662;10.162;2023-03-20T04:01:52;17.08;;;10.88;;
28587;SDS011;15787;49.662;10.162;2023-03-20T04:04:28;20.38;;;11.48;;
28587;SDS011;15787;49.662;10.162;2023-03-20T04:07:03;17.20;;;11.15;;
28587;SDS011;15787;49.662;10.162;2023-03-20T04:09:36;18.05;;;11.88;;
28587;SDS011;15787;49.662;10.162;2023-03-20T04:12:17;18.05;;;11.30;;
28587;SDS011;15787;49.662;10.162;2023-03-20T04:15:06;19.25;;;10.52;;
28587;SDS011;15787;49.662;10.162;2023-03-20T04:17:40;16.30;;;11.13;;
28587;SDS011;15787;49.662;10.162;2023-03-20T04:20:15;19.27;;;12.02;;
28587;SDS011;15787;49.662;10.162;2023-03-20T04:22:49;18.67;;;10.95;;
28587;SDS011;15787;49.662;10.162;2023-03-20T04:25:24;20.67;;;12.35;;
28587;SDS011;15787;49.662;10.162;2023-03-20T04:27:59;17.85;;;11.77;;
28587;SDS011;15787;49.662;10.162;2023-03-20T04:31:06;19.27;;;12.77;;
28587;SDS011;15787;49.662;10.162;2023-03-20T04:33:57;17.98;;;11.07;;
28587;SDS011;15787;49.662;10.162;2023-03-20T04:36:46;17.25;;;10.68;;
28587;SDS011;15787;49.662;10.162;2023-03-20T04:39:21;15.75;;;10.57;;
28587;SDS011;15787;49.662;10.162;2023-03-20T04:41:54;16.23;;;10.70;;
28587;SDS011;15787;49.662;10.162;2023-03-20T04:44:27;16.77;;;10.13;;
28587;SDS011;15787;49.662;10.162;2023-03-20T04:47:02;17.05;;;10.32;;
28587;SDS011;15787;49.662;10.162;2023-03-20T04:49:36;15.70;;;10.80;;
28587;SDS011;15787;49.662;10.162;2023-03-20T04:52:10;15.15;;;9.80;;
28587;SDS011;15787;49.662;10.162;2023-03-20T04:54:45;16.35;;;10.75;;
28587;SDS011;15787;49.662;10.162;2023-03-20T04:57:18;16.38;;;10.38;;
28587;SDS011;15787;49.662;10.162;2023-03-20T04:59:51;21.02;;;10.73;;
28587;SDS011;15787;49.662;10.162;2023-03-20T05:02:25;14.00;;;9.55;;
28587;SDS011;15787;49.662;10.162;2023-03-20T05:04:58;14.98;;;9.85;;
28587;SDS011;15787;49.662;10.162;2023-03-20T05:07:31;17.30;;;10.57;;
28587;SDS011;15787;49.662;10.162;2023-03-20T05:10:09;13.52;;;9.88;;
28587;SDS011;15787;49.662;10.162;2023-03-20T05:12:50;14.20;;;9.73;;
28587;SDS011;15787;49.662;10.162;2023-03-20T05:15:44;13.05;;;8.98;;
28587;SDS011;15787;49.662;10.162;2023-03-20T05:18:42;14.82;;;9.50;;
28587;SDS011;15787;49.662;10.162;2023-03-20T05:21:28;14.43;;;10.00;;
28587;SDS011;15787;49.662;10.162;2023-03-20T05:24:20;15.90;;;10.25;;
28587;SDS011;15787;49.662;10.162;2023-03-20T05:27:05;14.15;;;9.52;;
28587;SDS011;15787;49.662;10.162;2023-03-20T05:29:53;16.00;;;9.73;;
28587;SDS011;15787;49.662;10.162;2023-03-20T05:32:58;15.60;;;9.73;;
28587;SDS011;15787;49.662;10.162;2023-03-20T05:35:53;16.73;;;10.68;;
28587;SDS011;15787;49.662;10.162;2023-03-20T05:38:36;16.65;;;10.57;;
28587;SDS011;15787;49.662;10.162;2023-03-20T05:41:28;19.17;;;10.90;;
28587;SDS011;15787;49.662;10.162;2023-03-20T05:44:13;16.38;;;10.35;;
28587;SDS011;15787;49.662;10.162;2023-03-20T05:46:58;15.23;;;10.20;;
28587;SDS011;15787;49.662;10.162;2023-03-20T05:49:50;15.27;;;9.82;;
28587;SDS011;15787;49.662;10.162;2023-03-20T05:52:41;15.05;;;10.32;;
28587;SDS011;15787;49.662;10.162;2023-03-20T05:55:24;17.60;;;11.50;;
28587;SDS011;15787;49.662;10.162;2023-03-20T05:58:20;16.10;;;10.80;;
28587;SDS011;15787;49.662;10.162;2023-03-20T06:01:05;14.73;;;10.48;;
28587;SDS011;15787;49.662;10.162;2023-03-20T06:04:01;13.50;;;9.52;;
28587;SDS011;15787;49.662;10.162;2023-03-20T06:06:53;14.57;;;9.75;;
28587;SDS011;15787;49.662;10.162;2023-03-20T06:09:28;15.48;;;10.88;;
28587;SDS011;15787;49.662;10.162;2023-03-20T06:12:02;16.15;;;9.85;;
28587;SDS011;15787;49.662;10.162;2023-03-20T06:14:35;13.45;;;9.50;;
28587;SDS011;15787;49.662;10.162;2023-03-20T06:17:10;16.48;;;10.70;;
28587;SDS011;15787;49.662;10.162;2023-03-20T06:19:45;15.40;;;9.60;;
28587;SDS011;15787;49.662;10.162;2023-03-20T06:22:18;13.50;;;9.13;;
28587;SDS011;15787;49.662;10.162;2023-03-20T06:24:52;16.90;;;10.02;;
28587;SDS011;15787;49.662;10.162;2023-03-20T06:27:33;15.20;;;9.55;;
28587;SDS011;15787;49.662;10.162;2023-03-20T06:30:07;14.65;;;9.30;;
28587;SDS011;15787;49.662;10.162;2023-03-20T06:32:43;16.13;;;10.13;;
28587;SDS011;15787;49.662;10.162;2023-03-20T06:35:20;14.70;;;10.10;;
28587;SDS011;15787;49.662;10.162;2023-03-20T06:37:54;14.75;;;10.25;;
28587;SDS011;15787;49.662;10.162;2023-03-20T06:40:31;14.35;;;9.82;;
28587;SDS011;15787;49.662;10.162;2023-03-20T06:43:04;15.00;;;9.70;;
28587;SDS011;15787;49.662;10.162;2023-03-20T06:45:46;15.63;;;10.23;;
28587;SDS011;15787;49.662;10.162;2023-03-20T06:48:28;15.27;;;9.82;;
28587;SDS011;15787;49.662;10.162;2023-03-20T06:51:04;16.67;;;9.82;;
28587;SDS011;15787;49.662;10.162;2023-03-20T06:53:45;15.23;;;10.13;;
28587;SDS011;15787;49.662;10.162;2023-03-20T06:56:23;16.48;;;10.68;;
28587;SDS011;15787;49.662;10.162;2023-03-20T06:58:56;16.23;;;10.68;;
28587;SDS011;15787;49.662;10.162;2023-03-20T07:01:30;14.60;;;10.43;;
28587;SDS011;15787;49.662;10.162;2023-03-20T07:04:03;13.10;;;9.50;;
28587;SDS011;15787;49.662;10.162;2023-03-20T07:06:42;16.02;;;10.45;;
28587;SDS011;15787;49.662;10.162;2023-03-20T07:09:16;15.20;;;9.68;;
28587;SDS011;15787;49.662;10.162;2023-03-20T07:11:50;15.10;;;9.52;;
28587;SDS011;15787;49.662;10.162;2023-03-20T07:14:24;14.20;;;9.45;;
28587;SDS011;15787;49.662;10.162;2023-03-20T07:17:00;15.20;;;10.30;;
28587;SDS011;15787;49.662;10.162;2023-03-20T07:19:35;15.07;;;9.77;;
28587;SDS011;15787;49.662;10.162;2023-03-20T07:22:13;13.32;;;8.70;;
28587;SDS011;15787;49.662;10.162;2023-03-20T07:24:53;12.68;;;8.13;;
28587;SDS011;15787;49.662;10.162;2023-03-20T07:27:29;12.35;;;8.60;;
28587;SDS011;15787;49.662;10.162;2023-03-20T07:30:02;15.05;;;9.27;;
28587;SDS011;15787;49.662;10.162;2023-03-20T07:32:36;17.42;;;9.63;;
28587;SDS011;15787;49.662;10.162;2023-03-20T07:35:11;14.07;;;8.88;;
28587;SDS011;15787;49.662;10.162;2023-03-20T07:37:45;15.95;;;9.50;;
28587;SDS011;15787;49.662;10.162;2023-03-20T07:40:18;14.27;;;9.00;;
28587;SDS011;15787;49.662;10.162;2023-03-20T07:42:59;13.15;;;8.63;;
28587;SDS011;15787;49.662;10.162;2023-03-20T07:46:02;14.90;;;8.90;;
28587;SDS011;15787;49.662;10.162;2023-03-20T07:48:36;15.23;;;8.48;;
28587;SDS011;15787;49.662;10.162;2023-03-20T07:51:09;17.73;;;8.80;;
28587;SDS011;15787;49.662;10.162;2023-03-20T07:53:42;16.33;;;9.00;;
28587;SDS011;15787;49.662;10.162;2023-03-20T07:56:15;13.32;;;8.18;;
28587;SDS011;15787;49.662;10.162;2023-03-20T07:58:49;15.13;;;8.73;;
28587;SDS011;15787;49.662;10.162;2023-03-20T08:01:23;13.95;;;8.75;;
28587;SDS011;15787;49.662;10.162;2023-03-20T08:03:57;13.82;;;8.23;;
28587;SDS011;15787;49.662;10.162;2023-03-20T08:06:30;13.13;;;7.88;;
28587;SDS011;15787;49.662;10.162;2023-03-20T08:09:03;18.80;;;9.32;;
28587;SDS011;15787;49.662;10.162;2023-03-20T08:11:36;14.18;;;8.10;;
28587;SDS011;15787;49.662;10.162;2023-03-20T08:14:10;14.90;;;8.68;;
28587;SDS011;15787;49.662;10.162;2023-03-20T08:16:43;14.45;;;8.25;;
28587;SDS011;15787;49.662;10.162;2023-03-20T08:19:16;13.68;;;8.75;;
28587;SDS011;15787;49.662;10.162;2023-03-20T08:21:49;15.13;;;9.13;;
28587;SDS011;15787;49.662;10.162;2023-03-20T08:24:22;18.40;;;9.35;;
28587;SDS011;15787;49.662;10.162;2023-03-20T08:26:55;15.48;;;8.65;;
28587;SDS011;15787;49.662;10.162;2023-03-20T08:29:29;14.80;;;9.35;;
28587;SDS011;15787;49.662;10.162;2023-03-20T08:32:02;15.27;;;9.13;;
28587;SDS011;15787;49.662;10.162;2023-03-20T08:34:36;14.65;;;8.50;;
28587;SDS011;15787;49.662;10.162;2023-03-20T08:37:08;15.43;;;9.40;;
28587;SDS011;15787;49.662;10.162;2023-03-20T08:39:43;14.75;;;8.32;;
28587;SDS011;15787;49.662;10.162;2023-03-20T08:42:16;16.85;;;9.43;;
28587;SDS011;15787;49.662;10.162;2023-03-20T08:44:50;17.20;;;9.57;;
28587;SDS011;15787;49.662;10.162;2023-03-20T08:47:23;14.60;;;8.85;;
28587;SDS011;15787;49.662;10.162;2023-03-20T08:49:56;16.30;;;8.93;;
28587;SDS011;15787;49.662;10.162;2023-03-20T08:52:29;20.05;;;10.45;;
28587;SDS011;15787;49.662;10.162;2023-03-20T08:55:03;13.60;;;9.23;;
28587;SDS011;15787;49.662;10.162;2023-03-20T08:57:38;15.50;;;9.05;;
28587;SDS011;15787;49.662;10.162;2023-03-20T09:00:13;13.50;;;9.00;;
28587;SDS011;15787;49.662;10.162;2023-03-20T09:02:49;16.20;;;9.68;;
28587;SDS011;15787;49.662;10.162;2023-03-20T09:05:22;16.02;;;9.15;;
28587;SDS011;15787;49.662;10.162;2023-03-20T09:07:55;15.55;;;9.68;;
28587;SDS011;15787;49.662;10.162;2023-03-20T09:10:28;15.13;;;9.50;;
28587;SDS011;15787;49.662;10.162;2023-03-20T09:13:01;13.60;;;8.68;;
28587;SDS011;15787;49.662;10.162;2023-03-20T09:15:55;14.07;;;8.75;;
28587;SDS011;15787;49.662;10.162;2023-03-20T09:18:28;16.23;;;9.43;;
28587;SDS011;15787;49.662;10.162;2023-03-20T09:21:01;15.25;;;8.93;;
28587;SDS011;15787;49.662;10.162;2023-03-20T09:23:35;15.07;;;9.32;;
28587;SDS011;15787;49.662;10.162;2023-03-20T09:26:07;14.98;;;8.95;;
28587;SDS011;15787;49.662;10.162;2023-03-20T09:28:40;17.58;;;9.65;;
28587;SDS011;15787;49.662;10.162;2023-03-20T09:31:14;16.52;;;8.82;;
28587;SDS011;15787;49.662;10.162;2023-03-20T09:33:47;15.43;;;8.73;;
28587;SDS011;15787;49.662;10.162;2023-03-20T09:36:20;14.70;;;8.48;;
28587;SDS011;15787;49.662;10.162;2023-03-20T09:38:53;13.43;;;8.15;;
28587;SDS011;15787;49.662;10.162;2023-03-20T09:41:26;16.80;;;9.70;;
28587;SDS011;15787;49.662;10.162;2023-03-20T09:44:31;14.05;;;9.07;;
28587;SDS011;15787;49.662;10.162;2023-03-20T09:47:17;13.95;;;8.68;;
28587;SDS011;15787;49.662;10.162;2023-03-20T09:50:03;14.20;;;8.45;;
28587;SDS011;15787;49.662;10.162;2023-03-20T09:52:54;12.50;;;7.63;;
28587;SDS011;15787;49.662;10.162;2023-03-20T09:55:32;14.45;;;8.68;;
28587;SDS011;15787;49.662;10.162;2023-03-20T09:58:10;13.90;;;8.02;;
28587;SDS011;15787;49.662;10.162;2023-03-20T10:00:46;13.52;;;8.50;;
28587;SDS011;15787;49.662;10.162;2023-03-20T10:03:21;13.57;;;7.70;;
28587;SDS011;15787;49.662;10.162;2023-03-20T10:05:58;12.65;;;7.80;;
28587;SDS011;15787;49.662;10.162;2023-03-20T10:08:34;10.75;;;7.45;;
28587;SDS011;15787;49.662;10.162;2023-03-20T10:11:14;13.95;;;7.57;;
28587;SDS011;15787;49.662;10.162;2023-03-20T10:14:06;13.98;;;8.10;;
28587;SDS011;15787;49.662;10.162;2023-03-20T10:16:59;10.63;;;7.60;;
28587;SDS011;15787;49.662;10.162;2023-03-20T10:19:43;11.73;;;7.20;;
28587;SDS011;15787;49.662;10.162;2023-03-20T10:22:21;12.93;;;8.70;;
28587;SDS011;15787;49.662;10.162;2023-03-20T10:24:56;13.38;;;8.05;;
28587;SDS011;15787;49.662;10.162;2023-03-20T10:27:38;15.82;;;8.68;;
28587;SDS011;15787;49.662;10.162;2023-03-20T10:30:19;15.10;;;8.35;;
28587;SDS011;15787;49.662;10.162;2023-03-20T10:33:03;13.93;;;8.60;;
28587;SDS011;15787;49.662;10.162;2023-03-20T10:36:01;13.88;;;7.88;;
28587;SDS011;15787;49.662;10.162;2023-03-20T10:38:47;11.60;;;8.13;;
28587;SDS011;15787;49.662;10.162;2023-03-20T10:41:27;12.77;;;8.10;;
28587;SDS011;15787;49.662;10.162;2023-03-20T10:44:03;16.88;;;9.18;;
28587;SDS011;15787;49.662;10.162;2023-03-20T10:46:42;12.55;;;7.68;;
28587;SDS011;15787;49.662;10.162;2023-03-20T10:49:18;12.13;;;7.93;;
28587;SDS011;15787;49.662;10.162;2023-03-20T10:52:02;13.77;;;8.75;;
28587;SDS011;15787;49.662;10.162;2023-03-20T10:54:38;14.25;;;8.55;;
28587;SDS011;15787;49.662;10.162;2023-03-20T10:57:14;12.73;;;8.15;;
28587;SDS011;15787;49.662;10.162;2023-03-20T10:59:54;12.27;;;8.55;;
28587;SDS011;15787;49.662;10.162;2023-03-20T11:02:29;16.88;;;9.20;;
28587;SDS011;15787;49.662;10.162;2023-03-20T11:05:04;13.90;;;8.60;;
28587;SDS011;15787;49.662;10.162;2023-03-20T11:08:00;12.20;;;8.20;;
28587;SDS011;15787;49.662;10.162;2023-03-20T11:10:35;12.82;;;8.60;;
28587;SDS011;15787;49.662;10.162;2023-03-20T11:13:13;11.95;;;7.80;;
28587;SDS011;15787;49.662;10.162;2023-03-20T11:15:50;12.52;;;8.07;;
28587;SDS011;15787;49.662;10.162;2023-03-20T11:18:24;12.27;;;8.63;;
28587;SDS011;15787;49.662;10.162;2023-03-20T11:20:57;12.93;;;7.90;;
28587;SDS011;15787;49.662;10.162;2023-03-20T11:23:34;11.90;;;7.00;;
28587;SDS011;15787;49.662;10.162;2023-03-20T11:26:10;13.98;;;7.90;;
28587;SDS011;15787;49.662;10.162;2023-03-20T11:28:46;13.98;;;8.50;;
28587;SDS011;15787;49.662;10.162;2023-03-20T11:31:23;15.75;;;8.68;;
28587;SDS011;15787;49.662;10.162;2023-03-20T11:34:09;15.93;;;9.00;;
28587;SDS011;15787;49.662;10.162;2023-03-20T11:36:54;13.45;;;8.65;;
28587;SDS011;15787;49.662;10.162;2023-03-20T11:39:42;12.77;;;7.88;;
28587;SDS011;15787;49.662;10.162;2023-03-20T11:42:25;14.93;;;8.40;;
28587;SDS011;15787;49.662;10.162;2023-03-20T11:45:00;13.05;;;8.15;;
28587;SDS011;15787;49.662;10.162;2023-03-20T11:47:34;16.70;;;9.27;;
28587;SDS011;15787;49.662;10.162;2023-03-20T11:50:13;16.48;;;9.10;;
28587;SDS011;15787;49.662;10.162;2023-03-20T11:52:57;14.40;;;8.43;;
28587;SDS011;15787;49.662;10.162;2023-03-20T11:55:33;18.48;;;10.43;;
28587;SDS011;15787;49.662;10.162;2023-03-20T11:58:11;17.80;;;10.00;;
28587;SDS011;15787;49.662;10.162;2023-03-20T12:00:48;16.85;;;10.10;;
28587;SDS011;15787;49.662;10.162;2023-03-20T12:03:35;19.20;;;10.52;;
28587;SDS011;15787;49.662;10.162;2023-03-20T12:06:13;20.08;;;9.88;;
28587;SDS011;15787;49.662;10.162;2023-03-20T12:08:53;20.63;;;10.52;;
28587;SDS011;15787;49.662;10.162;2023-03-20T12:11:35;19.65;;;11.02;;
28587;SDS011;15787;49.662;10.162;2023-03-20T12:14:16;20.48;;;11.90;;
28587;SDS011;15787;49.662;10.162;2023-03-20T12:16:58;20.73;;;11.57;;
28587;SDS011;15787;49.662;10.162;2023-03-20T12:19:39;18.63;;;10.90;;
28587;SDS011;15787;49.662;10.162;2023-03-20T12:22:15;18.98;;;10.20;;
28587;SDS011;15787;49.662;10.162;2023-03-20T12:24:55;17.58;;;10.43;;
28587;SDS011;15787;49.662;10.162;2023-03-20T12:30:12;17.90;;;10.68;;
28587;SDS011;15787;49.662;10.162;2023-03-20T12:32:51;18.08;;;10.25;;
28587;SDS011;15787;49.662;10.162;2023-03-20T12:35:31;18.25;;;11.10;;
28587;SDS011;15787;49.662;10.162;2023-03-20T12:38:10;19.92;;;11.57;;
28587;SDS011;15787;49.662;10.162;2023-03-20T12:40:55;20.77;;;10.93;;
28587;SDS011;15787;49.662;10.162;2023-03-20T12:43:39;20.95;;;11.80;;
28587;SDS011;15787;49.662;10.162;2023-03-20T12:46:23;21.13;;;10.50;;
28587;SDS011;15787;49.662;10.162;2023-03-20T12:49:04;19.40;;;10.63;;
28587;SDS011;15787;49.662;10.162;2023-03-20T12:51:47;19.45;;;11.35;;
28587;SDS011;15787;49.662;10.162;2023-03-20T12:54:33;20.95;;;11.65;;
28587;SDS011;15787;49.662;10.162;2023-03-20T12:57:17;18.45;;;10.68;;
28587;SDS011;15787;49.662;10.162;2023-03-20T13:00:09;19.60;;;10.95;;
28587;SDS011;15787;49.662;10.162;2023-03-20T13:02:53;19.05;;;11.07;;
28587;SDS011;15787;49.662;10.162;2023-03-20T13:05:40;19.45;;;10.75;;
28587;SDS011;15787;49.662;10.162;2023-03-20T13:08:21;17.27;;;10.10;;
28587;SDS011;15787;49.662;10.162;2023-03-20T13:11:09;19.50;;;10.80;;
28587;SDS011;15787;49.662;10.162;2023-03-20T13:13:50;15.63;;;9.80;;
28587;SDS011;15787;49.662;10.162;2023-03-20T13:16:32;16.13;;;8.30;;
28587;SDS011;15787;49.662;10.162;2023-03-20T13:19:15;14.60;;;9.02;;
28587;SDS011;15787;49.662;10.162;2023-03-20T13:21:58;15.40;;;6.78;;
28587;SDS011;15787;49.662;10.162;2023-03-20T13:24:38;13.48;;;7.78;;
28587;SDS011;15787;49.662;10.162;2023-03-20T13:27:20;12.13;;;7.43;;
28587;SDS011;15787;49.662;10.162;2023-03-20T13:30:06;16.15;;;8.88;;
28587;SDS011;15787;49.662;10.162;2023-03-20T13:32:52;14.88;;;7.63;;
28587;SDS011;15787;49.662;10.162;2023-03-20T13:35:38;13.10;;;7.53;;
28587;SDS011;15787;49.662;10.162;2023-03-20T13:38:17;13.90;;;7.93;;
28587;SDS011;15787;49.662;10.162;2023-03-20T13:40:55;12.55;;;7.43;;
28587;SDS011;15787;49.662;10.162;2023-03-20T13:43:32;16.40;;;9.15;;
28587;SDS011;15787;49.662;10.162;2023-03-20T13:46:09;16.05;;;8.35;;
28587;SDS011;15787;49.662;10.162;2023-03-20T13:48:47;17.65;;;9.18;;
28587;SDS011;15787;49.662;10.162;2023-03-20T13:51:25;17.15;;;8.35;;
28587;SDS011;15787;49.662;10.162;2023-03-20T13:54:09;17.20;;;9.57;;
28587;SDS011;15787;49.662;10.162;2023-03-20T13:56:48;18.17;;;9.52;;
28587;SDS011;15787;49.662;10.162;2023-03-20T14:02:19;14.27;;;8.60;;
28587;SDS011;15787;49.662;10.162;2023-03-20T14:05:02;16.17;;;8.23;;
28587;SDS011;15787;49.662;10.162;2023-03-20T14:07:38;16.10;;;8.25;;
28587;SDS011;15787;49.662;10.162;2023-03-20T14:10:34;19.27;;;10.02;;
28587;SDS011;15787;49.662;10.162;2023-03-20T14:13:12;16.98;;;9.00;;
28587;SDS011;15787;49.662;10.162;2023-03-20T14:15:51;14.30;;;8.18;;
28587;SDS011;15787;49.662;10.162;2023-03-20T14:18:26;16.88;;;8.60;;
28587;SDS011;15787;49.662;10.162;2023-03-20T14:21:01;16.95;;;9.30;;
28587;SDS011;15787;49.662;10.162;2023-03-20T14:23:43;12.45;;;7.70;;
28587;SDS011;15787;49.662;10.162;2023-03-20T14:26:21;16.85;;;8.75;;
28587;SDS011;15787;49.662;10.162;2023-03-20T14:28:58;13.82;;;7.20;;
28587;SDS011;15787;49.662;10.162;2023-03-20T14:31:33;14.02;;;7.40;;
28587;SDS011;15787;49.662;10.162;2023-03-20T14:34:13;13.80;;;6.50;;
28587;SDS011;15787;49.662;10.162;2023-03-20T14:36:55;11.40;;;7.00;;
28587;SDS011;15787;49.662;10.162;2023-03-20T14:39:33;13.90;;;6.88;;
28587;SDS011;15787;49.662;10.162;2023-03-20T14:42:18;11.32;;;6.60;;
28587;SDS011;15787;49.662;10.162;2023-03-20T14:45:01;11.32;;;7.45;;
28587;SDS011;15787;49.662;10.162;2023-03-20T14:47:52;11.27;;;6.80;;
28587;SDS011;15787;49.662;10.162;2023-03-20T14:50:33;12.77;;;7.20;;
28587;SDS011;15787;49.662;10.162;2023-03-20T14:53:14;11.35;;;6.78;;
28587;SDS011;15787;49.662;10.162;2023-03-20T14:55:51;11.65;;;6.43;;
28587;SDS011;15787;49.662;10.162;2023-03-20T14:58:36;12.32;;;7.15;;
28587;SDS011;15787;49.662;10.162;2023-03-20T15:01:23;11.02;;;6.70;;
28587;SDS011;15787;49.662;10.162;2023-03-20T15:03:58;12.23;;;6.18;;
28587;SDS011;15787;49.662;10.162;2023-03-20T15:06:41;14.43;;;7.22;;
28587;SDS011;15787;49.662;10.162;2023-03-20T15:09:18;11.80;;;6.25;;
28587;SDS011;15787;49.662;10.162;2023-03-20T15:11:53;11.52;;;6.32;;
28587;SDS011;15787;49.662;10.162;2023-03-20T15:14:34;10.95;;;6.45;;
28587;SDS011;15787;49.662;10.162;2023-03-20T15:17:16;11.57;;;6.57;;
28587;SDS011;15787;49.662;10.162;2023-03-20T15:19:57;10.65;;;5.53;;
28587;SDS011;15787;49.662;10.162;2023-03-20T15:22:32;9.88;;;5.57;;
28587;SDS011;15787;49.662;10.162;2023-03-20T15:25:14;9.50;;;5.35;;
28587;SDS011;15787;49.662;10.162;2023-03-20T15:27:48;8.75;;;5.10;;
28587;SDS011;15787;49.662;10.162;2023-03-20T15:30:22;8.52;;;5.25;;
28587;SDS011;15787;49.662;10.162;2023-03-20T15:32:56;10.80;;;6.18;;
28587;SDS011;15787;49.662;10.162;2023-03-20T15:35:29;8.63;;;5.15;;
28587;SDS011;15787;49.662;10.162;2023-03-20T15:38:03;9.02;;;5.20;;
28587;SDS011;15787;49.662;10.162;2023-03-20T15:40:39;8.88;;;5.10;;
28587;SDS011;15787;49.662;10.162;2023-03-20T15:43:21;10.95;;;6.93;;
28587;SDS011;15787;49.662;10.162;2023-03-20T15:45:56;9.45;;;5.30;;